createdAt,value
2022-11-01T00:00:12.492Z,169.27
2022-11-01T00:02:38.903Z,172.98
2022-11-01T00:05:05.214Z,168.25
2022-11-01T00:07:35.027Z,166.75
2022-11-01T00:10:01.467Z,166.38
2022-11-01T00:12:28.511Z,165.73
2022-11-01T00:14:54.984Z,167.10
2022-11-01T00:17:21.548Z,160.23
2022-11-01T00:19:47.855Z,161.35
2022-11-01T00:22:14.208Z,159.55
2022-11-01T00:24:40.578Z,159.10
2022-11-01T00:27:06.941Z,159.95
2022-11-01T00:29:33.248Z,153.98
2022-11-01T00:31:59.611Z,153.38
2022-11-01T00:34:25.868Z,154.68
2022-11-01T00:36:52.174Z,153.85
2022-11-01T00:39:18.454Z,152.40
2022-11-01T00:41:44.934Z,151.63
2022-11-01T00:44:11.199Z,153.07
2022-11-01T00:46:37.468Z,149.60
2022-11-01T00:49:03.735Z,144.55
2022-11-01T00:51:30.009Z,146.32
2022-11-01T00:53:56.812Z,145.63
2022-11-01T00:56:23.109Z,142.57
2022-11-01T00:58:49.353Z,142.68
2022-11-01T01:01:15.745Z,140.02
2022-11-01T01:03:42.222Z,142.00
2022-11-01T01:06:08.491Z,137.77
2022-11-01T01:08:34.771Z,140.45
2022-11-01T01:11:01.881Z,135.55
2022-11-01T01:13:28.169Z,136.00
2022-11-01T01:15:54.413Z,136.98
2022-11-01T01:18:20.718Z,132.88
2022-11-01T01:20:47.414Z,131.55
2022-11-01T01:23:13.703Z,134.02
2022-11-01T01:25:39.999Z,132.43
2022-11-01T01:28:06.371Z,130.60
2022-11-01T01:30:32.744Z,129.23
2022-11-01T01:32:59.122Z,129.25
2022-11-01T01:35:26.181Z,128.02
2022-11-01T01:37:52.631Z,128.38
2022-11-01T01:40:18.963Z,124.35
2022-11-01T01:42:45.484Z,124.43
2022-11-01T01:45:11.768Z,123.60
2022-11-01T01:47:38.063Z,121.75
2022-11-01T01:50:04.363Z,121.50
2022-11-01T01:52:30.684Z,120.28
2022-11-01T01:54:56.983Z,119.18
2022-11-01T01:57:23.288Z,124.10
2022-11-01T01:59:49.837Z,120.10
2022-11-01T02:02:16.265Z,117.43
2022-11-01T02:04:43.099Z,118.13
2022-11-01T02:07:11.637Z,120.45
2022-11-01T02:09:39.269Z,118.22
2022-11-01T02:12:05.608Z,115.57
2022-11-01T02:14:31.850Z,114.10
2022-11-01T02:16:58.603Z,113.22
2022-11-01T02:19:24.965Z,112.43
2022-11-01T02:21:54.030Z,109.63
2022-11-01T02:24:20.431Z,111.72
2022-11-01T02:26:46.716Z,111.15
2022-11-01T02:29:12.988Z,111.00
2022-11-01T02:31:39.472Z,109.60
2022-11-01T02:34:05.893Z,106.75
2022-11-01T02:36:32.520Z,106.55
2022-11-01T02:38:58.849Z,103.82
2022-11-01T02:41:25.388Z,102.90
2022-11-01T02:43:51.887Z,104.95
2022-11-01T02:46:18.315Z,99.47
2022-11-01T02:48:44.816Z,95.82
2022-11-01T02:51:11.202Z,97.10
2022-11-01T02:53:37.498Z,94.28
2022-11-01T02:56:03.921Z,96.55
2022-11-01T02:58:30.249Z,97.38
2022-11-01T03:00:56.823Z,92.43
2022-11-01T03:03:23.170Z,89.47
2022-11-01T03:05:49.614Z,89.55
2022-11-01T03:08:15.852Z,88.47
2022-11-01T03:10:42.147Z,87.13
2022-11-01T03:13:08.467Z,88.80
2022-11-01T03:15:34.768Z,84.82
2022-11-01T03:18:01.068Z,85.18
2022-11-01T03:20:27.480Z,82.90
2022-11-01T03:22:53.966Z,79.82
2022-11-01T03:25:20.262Z,79.10
2022-11-01T03:27:46.610Z,78.53
2022-11-01T03:30:13.089Z,76.32
2022-11-01T03:32:39.340Z,72.50
2022-11-01T03:35:05.675Z,73.07
2022-11-01T03:37:31.951Z,73.55
2022-11-01T03:39:58.370Z,71.82
2022-11-01T03:42:25.156Z,72.82
2022-11-01T03:44:51.504Z,69.97
2022-11-01T03:47:18.140Z,67.65
2022-11-01T03:49:44.501Z,66.95
2022-11-01T03:52:10.750Z,68.55
2022-11-01T03:54:37.220Z,69.63
2022-11-01T03:57:03.511Z,70.93
2022-11-01T03:59:29.755Z,68.00
2022-11-01T04:01:56.129Z,67.70
2022-11-01T04:04:22.620Z,66.40
2022-11-01T04:06:48.910Z,67.07
2022-11-01T04:09:15.528Z,66.57
2022-11-01T04:11:41.884Z,65.95
2022-11-01T04:14:08.266Z,67.72
2022-11-01T04:16:34.794Z,63.63
2022-11-01T04:19:01.561Z,66.43
2022-11-01T04:21:27.830Z,66.10
2022-11-01T04:23:54.142Z,63.63
2022-11-01T04:26:20.854Z,63.28
2022-11-01T04:28:47.372Z,63.05
2022-11-01T04:31:13.664Z,64.57
2022-11-01T04:33:39.976Z,63.53
2022-11-01T04:36:06.277Z,61.15
2022-11-01T04:38:32.551Z,63.55
2022-11-01T04:40:58.853Z,63.38
2022-11-01T04:43:25.171Z,60.85
2022-11-01T04:45:51.464Z,61.58
2022-11-01T04:48:17.982Z,60.58
2022-11-01T04:50:44.289Z,62.10
2022-11-01T04:53:11.591Z,61.85
2022-11-01T04:55:37.972Z,59.53
2022-11-01T04:58:04.373Z,59.42
2022-11-01T05:00:30.872Z,60.30
2022-11-01T05:02:57.195Z,57.38
2022-11-01T05:05:23.599Z,57.70
2022-11-01T05:07:50.034Z,58.80
2022-11-01T05:10:16.490Z,58.03
2022-11-01T05:12:42.826Z,55.72
2022-11-01T05:15:09.272Z,55.13
2022-11-01T05:17:35.609Z,57.53
2022-11-01T05:20:02.112Z,57.17
2022-11-01T05:22:28.540Z,56.28
2022-11-01T05:24:54.915Z,55.30
2022-11-01T05:27:21.255Z,56.80
2022-11-01T05:29:47.715Z,56.80
2022-11-01T05:32:14.254Z,56.08
2022-11-01T05:34:40.585Z,51.30
2022-11-01T05:37:06.902Z,54.85
2022-11-01T05:39:33.487Z,52.95
2022-11-01T05:42:02.665Z,53.05
2022-11-01T05:44:29.475Z,50.83
2022-11-01T05:46:55.994Z,53.90
2022-11-01T05:49:22.331Z,52.85
2022-11-01T05:51:49.451Z,53.30
2022-11-01T05:54:15.935Z,54.78
2022-11-01T05:56:42.386Z,50.30
2022-11-01T05:59:08.688Z,51.38
2022-11-01T06:01:35.019Z,51.50
2022-11-01T06:04:01.487Z,50.05
2022-11-01T06:06:27.805Z,49.85
2022-11-01T06:08:54.128Z,48.17
2022-11-01T06:11:20.495Z,50.80
2022-11-01T06:13:46.784Z,51.65
2022-11-01T06:16:13.336Z,49.40
2022-11-01T06:18:40.097Z,48.67
2022-11-01T06:21:06.389Z,49.25
2022-11-01T06:23:32.672Z,48.58
2022-11-01T06:25:58.978Z,47.20
2022-11-01T06:28:25.283Z,47.70
2022-11-01T06:30:51.669Z,47.50
2022-11-01T06:33:17.988Z,44.88
2022-11-01T06:35:44.250Z,46.65
2022-11-01T06:38:10.623Z,45.53
2022-11-01T06:40:36.939Z,46.45
2022-11-01T06:43:03.700Z,45.55
2022-11-01T06:45:30.550Z,48.03
2022-11-01T06:47:56.820Z,47.08
2022-11-01T06:50:23.147Z,44.17
2022-11-01T06:52:49.576Z,44.20
2022-11-01T06:55:15.944Z,42.25
2022-11-01T06:57:42.162Z,44.08
2022-11-01T07:00:08.443Z,45.33
2022-11-01T07:02:34.845Z,45.38
2022-11-01T07:05:01.340Z,47.42
2022-11-01T07:07:27.739Z,45.03
2022-11-01T07:09:54.074Z,45.45
2022-11-01T07:12:20.422Z,44.58
2022-11-01T07:14:46.690Z,43.15
2022-11-01T07:17:12.982Z,42.42
2022-11-01T07:19:39.599Z,43.63
2022-11-01T07:22:05.838Z,41.60
2022-11-01T07:24:32.220Z,42.15
2022-11-01T07:26:58.516Z,42.55
2022-11-01T07:29:24.909Z,43.45
2022-11-01T07:31:51.190Z,41.47
2022-11-01T07:34:17.472Z,40.38
2022-11-01T07:36:43.814Z,39.67
2022-11-01T07:39:10.156Z,39.60
2022-11-01T07:41:36.453Z,42.35
2022-11-01T07:44:02.876Z,39.17
2022-11-01T07:46:29.150Z,41.70
2022-11-01T07:48:55.513Z,41.55
2022-11-01T07:51:22.134Z,39.65
2022-11-01T07:53:48.543Z,37.65
2022-11-01T07:56:15.238Z,39.60
2022-11-01T07:58:42.312Z,37.95
2022-11-01T08:01:08.782Z,36.55
2022-11-01T08:03:35.242Z,39.03
2022-11-01T08:06:01.537Z,37.53
2022-11-01T08:08:28.064Z,36.97
2022-11-01T08:10:54.471Z,37.03
2022-11-01T08:13:20.859Z,38.05
2022-11-01T08:15:47.832Z,36.63
2022-11-01T08:18:14.116Z,36.33
2022-11-01T08:20:40.440Z,36.13
2022-11-01T08:23:07.100Z,35.22
2022-11-01T08:25:33.725Z,36.85
2022-11-01T08:28:00.189Z,35.75
2022-11-01T08:30:35.401Z,37.65
2022-11-01T08:33:02.204Z,35.95
2022-11-01T08:35:29.017Z,36.25
2022-11-01T08:37:55.359Z,35.67
2022-11-01T08:40:21.765Z,35.60
2022-11-01T08:42:48.105Z,34.17
2022-11-01T08:45:14.425Z,35.72
2022-11-01T08:47:40.777Z,33.92
2022-11-01T08:50:08.692Z,34.05
2022-11-01T08:52:37.374Z,32.70
2022-11-01T08:55:04.139Z,34.70
2022-11-01T08:57:30.440Z,33.38
2022-11-01T08:59:56.975Z,34.65
2022-11-01T09:02:23.366Z,34.40
2022-11-01T09:04:50.007Z,32.58
2022-11-01T09:07:16.460Z,34.92
2022-11-01T09:09:43.025Z,33.33
2022-11-01T09:12:13.871Z,33.17
2022-11-01T09:14:40.919Z,32.95
2022-11-01T09:17:07.188Z,32.47
2022-11-01T09:19:33.763Z,31.65
2022-11-01T09:22:00.141Z,32.33
2022-11-01T09:24:26.577Z,32.55
2022-11-01T09:26:52.888Z,31.08
2022-11-01T09:29:19.212Z,31.95
2022-11-01T09:31:45.818Z,33.92
2022-11-01T09:34:12.218Z,32.58
2022-11-01T09:36:38.599Z,33.38
2022-11-01T09:39:04.920Z,31.80
2022-11-01T09:41:31.235Z,32.38
2022-11-01T09:43:57.596Z,30.83
2022-11-01T09:46:23.902Z,32.30
2022-11-01T09:48:50.248Z,30.52
2022-11-01T09:51:16.481Z,31.50
2022-11-01T09:53:42.880Z,30.63
2022-11-01T09:56:09.296Z,33.35
2022-11-01T09:58:35.607Z,29.55
2022-11-01T10:01:01.995Z,29.40
2022-11-01T10:03:28.309Z,31.55
2022-11-01T10:05:54.710Z,29.55
2022-11-01T10:08:21.130Z,28.92
2022-11-01T10:10:47.562Z,29.73
2022-11-01T10:13:13.925Z,32.33
2022-11-01T10:15:40.540Z,30.05
2022-11-01T10:18:08.076Z,29.52
2022-11-01T10:20:34.824Z,29.48
2022-11-01T10:23:01.504Z,28.50
2022-11-01T10:25:28.216Z,27.02
2022-11-01T10:27:54.612Z,28.77
2022-11-01T10:30:20.956Z,28.27
2022-11-01T10:32:47.260Z,27.95
2022-11-01T10:35:13.685Z,28.25
2022-11-01T10:37:47.254Z,27.60
2022-11-01T10:40:23.966Z,28.30
2022-11-01T10:42:50.270Z,27.30
2022-11-01T10:45:16.769Z,27.80
2022-11-01T10:47:43.234Z,27.92
2022-11-01T10:50:09.732Z,26.45
2022-11-01T10:52:36.120Z,27.90
2022-11-01T10:55:02.676Z,27.05
2022-11-01T10:57:28.938Z,25.42
2022-11-01T10:59:55.491Z,27.15
2022-11-01T11:02:21.907Z,27.25
2022-11-01T11:04:48.384Z,26.20
2022-11-01T11:07:18.548Z,26.52
2022-11-01T11:09:48.036Z,26.55
2022-11-01T11:12:14.448Z,25.55
2022-11-01T11:14:40.793Z,26.80
2022-11-01T11:17:07.150Z,24.95
2022-11-01T11:19:33.483Z,25.15
2022-11-01T11:21:59.787Z,24.35
2022-11-01T11:24:26.192Z,26.40
2022-11-01T11:26:54.335Z,23.65
2022-11-01T11:29:21.308Z,24.60
2022-11-01T11:31:47.586Z,25.33
2022-11-01T11:34:13.954Z,23.80
2022-11-01T11:36:41.986Z,23.40
2022-11-01T11:39:08.530Z,23.00
2022-11-01T11:41:35.240Z,24.65
2022-11-01T11:44:01.669Z,24.10
2022-11-01T11:46:28.161Z,23.55
2022-11-01T11:48:54.509Z,23.33
2022-11-01T11:51:20.825Z,23.55
2022-11-01T11:53:47.198Z,22.63
2022-11-01T11:56:13.560Z,23.17
2022-11-01T11:58:39.827Z,21.58
2022-11-01T12:01:06.308Z,21.50
2022-11-01T12:03:32.788Z,22.15
2022-11-01T12:05:59.144Z,22.27
2022-11-01T12:08:25.946Z,22.20
2022-11-01T12:10:52.499Z,21.50
2022-11-01T12:13:18.744Z,21.98
2022-11-01T12:15:45.237Z,21.55
2022-11-01T12:18:14.695Z,21.85
2022-11-01T12:20:42.335Z,20.92
2022-11-01T12:23:08.708Z,21.23
2022-11-01T12:25:35.290Z,21.13
2022-11-01T12:28:02.269Z,20.70
2022-11-01T12:30:28.980Z,21.85
2022-11-01T12:32:55.422Z,20.55
2022-11-01T12:35:21.850Z,21.20
2022-11-01T12:37:48.232Z,22.48
2022-11-01T12:40:14.779Z,19.77
2022-11-01T12:42:41.262Z,21.17
2022-11-01T12:45:07.584Z,19.00
2022-11-01T12:47:33.933Z,19.98
2022-11-01T12:50:00.192Z,20.40
2022-11-01T12:52:27.306Z,21.08
2022-11-01T12:54:53.787Z,20.55
2022-11-01T12:57:20.063Z,18.95
2022-11-01T12:59:46.874Z,19.80
2022-11-01T13:02:13.230Z,20.27
2022-11-01T13:04:39.780Z,19.48
2022-11-01T13:07:06.408Z,19.40
2022-11-01T13:09:32.859Z,19.67
2022-11-01T13:11:59.376Z,19.85
2022-11-01T13:14:26.524Z,20.35
2022-11-01T13:16:52.860Z,18.30
2022-11-01T13:19:19.178Z,18.05
2022-11-01T13:21:45.620Z,18.27
2022-11-01T13:24:12.037Z,18.88
2022-11-01T13:26:38.361Z,18.08
2022-11-01T13:29:04.816Z,17.83
2022-11-01T13:31:31.342Z,17.63
2022-11-01T13:33:57.846Z,19.38
2022-11-01T13:36:28.690Z,16.60
2022-11-01T13:38:57.667Z,18.77
2022-11-01T13:41:23.952Z,18.33
2022-11-01T13:43:50.390Z,19.95
2022-11-01T13:46:16.914Z,17.58
2022-11-01T13:48:43.194Z,17.40
2022-11-01T13:51:09.640Z,19.95
2022-11-01T13:53:36.019Z,17.30
2022-11-01T13:56:02.357Z,17.77
2022-11-01T13:58:28.650Z,16.80
2022-11-01T14:00:54.937Z,17.00
2022-11-01T14:03:21.288Z,16.40
2022-11-01T14:05:47.584Z,16.88
2022-11-01T14:08:13.894Z,16.15
2022-11-01T14:10:40.454Z,16.92
2022-11-01T14:13:06.747Z,17.17
2022-11-01T14:15:33.051Z,16.83
2022-11-01T14:17:59.574Z,15.77
2022-11-01T14:20:25.989Z,15.45
2022-11-01T14:22:52.569Z,16.65
2022-11-01T14:27:51.840Z,16.77
2022-11-01T14:30:18.419Z,16.67
2022-11-01T14:32:44.750Z,16.17
2022-11-01T14:35:11.151Z,15.70
2022-11-01T14:37:37.583Z,16.15
2022-11-01T14:40:04.103Z,16.35
2022-11-01T14:42:31.908Z,15.15
2022-11-01T14:44:58.610Z,16.08
2022-11-01T14:47:24.959Z,15.15
2022-11-01T14:49:51.627Z,14.90
2022-11-01T14:52:18.031Z,15.95
2022-11-01T14:54:44.576Z,14.60
2022-11-01T14:57:10.900Z,14.93
2022-11-01T14:59:37.165Z,14.85
2022-11-01T15:02:03.798Z,14.48
2022-11-01T15:04:30.320Z,15.57
2022-11-01T15:06:56.712Z,13.70
2022-11-01T15:09:23.034Z,14.52
2022-11-01T15:11:49.356Z,14.93
2022-11-01T15:14:15.694Z,14.75
2022-11-01T15:16:42.099Z,14.82
2022-11-01T15:19:08.347Z,14.63
2022-11-01T15:21:34.702Z,13.55
2022-11-01T15:24:01.144Z,14.38
2022-11-01T15:26:27.607Z,13.88
2022-11-01T15:28:53.944Z,14.70
2022-11-01T15:31:20.299Z,14.45
2022-11-01T15:33:46.588Z,13.13
2022-11-01T15:36:13.571Z,13.75
2022-11-01T15:38:40.026Z,14.52
2022-11-01T15:41:06.328Z,14.00
2022-11-01T15:43:32.724Z,14.38
2022-11-01T15:45:59.052Z,14.70
2022-11-01T15:48:25.399Z,15.18
2022-11-01T15:50:51.703Z,14.35
2022-11-01T15:53:18.039Z,15.25
2022-11-01T15:55:44.351Z,13.75
2022-11-01T15:58:10.708Z,13.70
2022-11-01T16:00:37.032Z,12.63
2022-11-01T16:03:03.719Z,13.80
2022-11-01T16:05:30.345Z,14.77
2022-11-01T16:07:56.865Z,13.52
2022-11-01T16:10:23.217Z,13.50
2022-11-01T16:12:49.568Z,14.07
2022-11-01T16:15:15.916Z,13.23
2022-11-01T16:17:42.337Z,13.73
2022-11-01T16:20:08.759Z,12.60
2022-11-01T16:22:35.029Z,14.02
2022-11-01T16:25:01.732Z,13.10
2022-11-01T16:27:28.726Z,13.55
2022-11-01T16:29:54.969Z,12.23
2022-11-01T16:32:21.332Z,12.60
2022-11-01T16:34:47.661Z,12.93
2022-11-01T16:37:14.003Z,13.43
2022-11-01T16:39:41.185Z,12.73
2022-11-01T16:42:07.503Z,12.77
2022-11-01T16:44:33.853Z,12.65
2022-11-01T16:47:00.164Z,12.27
2022-11-01T16:49:26.583Z,12.55
2022-11-01T16:51:52.994Z,12.93
2022-11-01T16:54:19.509Z,14.38
2022-11-01T16:56:45.966Z,13.98
2022-11-01T16:59:12.938Z,13.95
2022-11-01T17:04:13.222Z,14.15
2022-11-01T17:06:39.658Z,13.30
2022-11-01T17:11:46.472Z,12.52
2022-11-01T17:14:18.543Z,12.63
2022-11-01T17:16:45.032Z,12.63
2022-11-01T17:19:11.412Z,12.90
2022-11-01T17:21:37.747Z,13.52
2022-11-01T17:24:04.159Z,12.50
2022-11-01T17:26:30.634Z,13.20
2022-11-01T17:28:57.088Z,12.95
2022-11-01T17:31:23.380Z,13.48
2022-11-01T17:33:49.740Z,12.85
2022-11-01T17:36:16.046Z,13.82
2022-11-01T17:38:42.456Z,14.98
2022-11-01T17:41:09.167Z,14.32
2022-11-01T17:43:36.245Z,15.80
2022-11-01T17:46:02.761Z,29.00
2022-11-01T17:48:29.302Z,188.98
2022-11-01T17:50:55.733Z,222.18
2022-11-01T17:53:22.085Z,216.35
2022-11-01T17:55:48.384Z,229.63
2022-11-01T17:58:14.763Z,230.10
2022-11-01T18:00:41.030Z,226.77
2022-11-01T18:03:07.604Z,236.55
2022-11-01T18:05:34.452Z,247.13
2022-11-01T18:08:00.921Z,245.57
2022-11-01T18:10:27.420Z,223.40
2022-11-01T18:12:53.743Z,369.15
2022-11-01T18:15:20.055Z,434.67
2022-11-01T18:17:48.876Z,413.05
2022-11-01T18:20:15.823Z,387.70
2022-11-01T18:22:42.196Z,373.17
2022-11-01T18:25:08.520Z,379.30
2022-11-01T18:27:34.830Z,357.25
2022-11-01T18:30:01.409Z,344.20
2022-11-01T18:32:27.786Z,341.83
2022-11-01T18:34:54.170Z,329.45
2022-11-01T18:37:20.522Z,328.13
2022-11-01T18:39:47.003Z,360.05
2022-11-01T18:42:13.349Z,408.50
2022-11-01T18:44:39.768Z,418.08
2022-11-01T18:47:06.156Z,417.83
2022-11-01T18:49:32.546Z,417.58
2022-11-01T18:52:00.380Z,406.98
2022-11-01T18:54:26.780Z,402.88
2022-11-01T18:56:54.430Z,394.95
2022-11-01T18:59:20.773Z,381.73
2022-11-01T19:01:47.282Z,383.77
2022-11-01T19:04:13.659Z,382.30
2022-11-01T19:06:39.980Z,373.25
2022-11-01T19:09:06.343Z,362.45
2022-11-01T19:11:32.701Z,361.20
2022-11-01T19:13:59.026Z,357.33
2022-11-01T19:16:25.507Z,352.02
2022-11-01T19:18:52.164Z,377.65
2022-11-01T19:21:18.474Z,460.80
2022-11-01T19:23:44.979Z,533.28
2022-11-01T19:26:11.258Z,516.20
2022-11-01T19:28:38.543Z,515.83
2022-11-01T19:31:05.091Z,491.27
2022-11-01T19:33:31.398Z,498.60
2022-11-01T19:35:57.722Z,487.77
2022-11-01T19:38:24.420Z,483.90
2022-11-01T19:40:50.691Z,476.48
2022-11-01T19:43:17.127Z,470.75
2022-11-01T19:45:43.636Z,468.23
2022-11-01T19:48:09.994Z,462.25
2022-11-01T19:50:36.274Z,447.95
2022-11-01T19:53:02.691Z,464.45
2022-11-01T19:55:29.117Z,515.60
2022-11-01T19:57:55.485Z,549.05
2022-11-01T20:00:21.868Z,562.75
2022-11-01T20:02:48.523Z,550.75
2022-11-01T20:05:14.912Z,549.95
2022-11-01T20:07:41.347Z,543.90
2022-11-01T20:10:07.710Z,529.95
2022-11-01T20:12:34.111Z,527.10
2022-11-01T20:15:00.763Z,510.85
2022-11-01T20:17:27.309Z,511.83
2022-11-01T20:19:53.838Z,504.08
2022-11-01T20:22:21.126Z,502.33
2022-11-01T20:24:47.543Z,490.45
2022-11-01T20:27:14.033Z,495.08
2022-11-01T20:29:40.359Z,490.33
2022-11-01T20:32:06.764Z,477.85
2022-11-01T20:34:33.195Z,467.92
2022-11-01T20:37:26.782Z,465.60
2022-11-01T20:39:45.951Z,643.30
2022-11-01T20:42:12.446Z,668.70
2022-11-01T20:44:39.060Z,605.58
2022-11-01T20:47:05.387Z,586.70
2022-11-01T20:49:31.682Z,563.15
2022-11-01T20:52:13.535Z,533.70
2022-11-01T20:54:44.943Z,611.22
2022-11-01T20:57:24.807Z,619.83
2022-11-01T20:59:54.217Z,604.10
2022-11-01T21:02:20.575Z,587.10
2022-11-01T21:04:46.984Z,582.85
2022-11-01T21:07:13.287Z,572.45
2022-11-01T21:09:39.862Z,563.88
2022-11-01T21:12:06.331Z,561.90
2022-11-01T21:14:32.668Z,545.58
2022-11-01T21:16:59.006Z,542.90
2022-11-01T21:19:25.329Z,545.15
2022-11-01T21:21:51.923Z,532.25
2022-11-01T21:24:18.975Z,522.90
2022-11-01T21:26:45.299Z,520.40
2022-11-01T21:29:11.834Z,510.30
2022-11-01T21:31:38.526Z,508.83
2022-11-01T21:34:05.099Z,641.30
2022-11-01T21:36:31.425Z,682.47
2022-11-01T21:38:57.719Z,634.88
2022-11-01T21:41:24.252Z,608.40
2022-11-01T21:43:50.700Z,604.83
2022-11-01T21:46:17.067Z,593.72
2022-11-01T21:48:43.388Z,580.63
2022-11-01T21:51:09.922Z,567.08
2022-11-01T21:53:36.269Z,623.78
2022-11-01T21:56:02.761Z,739.72
2022-11-01T21:58:29.218Z,700.25
2022-11-01T22:00:55.805Z,666.58
2022-11-01T22:03:22.294Z,661.88
2022-11-01T22:05:48.656Z,650.40
2022-11-01T22:08:15.165Z,650.33
2022-11-01T22:10:41.797Z,634.53
2022-11-01T22:13:08.561Z,624.33
2022-11-01T22:15:35.119Z,624.63
2022-11-01T22:18:01.985Z,622.03
2022-11-01T22:20:28.323Z,650.40
2022-11-01T22:22:54.890Z,805.17
2022-11-01T22:25:21.186Z,786.92
2022-11-01T22:27:47.764Z,732.45
2022-11-01T22:30:14.138Z,711.50
2022-11-01T22:32:40.598Z,695.30
2022-11-01T22:35:06.878Z,689.03
2022-11-01T22:37:33.596Z,689.05
2022-11-01T22:39:59.914Z,719.28
2022-11-01T22:42:26.240Z,709.42
2022-11-01T22:44:52.792Z,702.63
2022-11-01T22:47:19.434Z,703.33
2022-11-01T22:49:45.917Z,702.00
2022-11-01T22:52:12.776Z,694.22
2022-11-01T22:54:39.274Z,689.38
2022-11-01T22:57:05.732Z,682.92
2022-11-01T22:59:33.352Z,674.22
2022-11-01T23:02:00.286Z,673.17
2022-11-01T23:04:27.252Z,672.15
2022-11-01T23:06:53.894Z,665.85
2022-11-01T23:09:20.292Z,660.55
2022-11-01T23:11:46.974Z,652.25
2022-11-01T23:14:14.427Z,653.90
2022-11-01T23:16:41.315Z,641.28
2022-11-01T23:19:07.926Z,634.35
2022-11-01T23:21:34.988Z,636.15
2022-11-01T23:24:01.421Z,635.35
2022-11-01T23:26:27.823Z,634.42
2022-11-01T23:28:54.176Z,623.70
2022-11-01T23:31:20.461Z,616.47
2022-11-01T23:33:46.810Z,617.10
2022-11-01T23:36:13.728Z,611.97
2022-11-01T23:38:40.051Z,605.22
2022-11-01T23:41:06.399Z,604.63
2022-11-01T23:43:32.720Z,596.42
2022-11-01T23:45:59.098Z,597.15
2022-11-01T23:48:25.641Z,592.83
2022-11-01T23:50:52.120Z,584.75
2022-11-01T23:53:20.472Z,585.95
2022-11-01T23:55:46.706Z,577.25
2022-11-01T23:58:13.064Z,575.75
